Memphis International Airport
KMEM : rendu visible

Aérodrome :











RETROUVEZ-NOUS SUR...

 
LOGIN :

S'inscrire | Disclaimer

   EN    FR    IT 

 









Légende :    VFR   VFR Marginal   IFR   IFR Intensif   IFR Très Intensif
Visi : 
Plafond : 
>= 8 km
>= 3000ft
5 à 8 km
1000 à 3000 ft
1500m à 5 km
500 à 1000 ft
800 à 1500m
200 à 500 ft
< 800m
< 200 ft
Symboles :   Orages  Brouillard  Fortes neiges  Fortes précipitations  Vent > 20 kt






- Altitude de l'aérodrome : 341 ft
- Code IATA : MEM


KMEM - Memphis International

DERNIER METAR :
  • 020754Z 11004KT 10SM BKN200 12/05 A3006 RMK AO2 SLP176 T01170050

METARs EXPIRÉS :
  • 020654Z 09007KT 10SM FEW250 11/06 A3005 RMK AO2 SLP173 T01060056
  • 020554Z 09007KT 10SM FEW250 12/06 A3005 RMK AO2 SLP174 T01170061 10161 20117 402060072 58000

TAF KMEM
Valide du 02 à 06h jusqu'au 03 à 12h UTC


020520Z 0206/0312 08004KT P6SM SKC
FM021500 14007KT P6SM SCT250
FM022300 14006KT P6SM BKN250
FM030400 13005KT P6SM SCT250
FM030900 13005KT P6SM BKN150



MET'MAP, la Météo Aéronautique d'un coup d'oeil ! - Copyright ORBIFLY Décembre 2007 - Disclaimer

ORBIFLY MET'MAP TEAM :

Programmation & Développement : Alexandra Zaïnal
Sur une idée originale de : Baudouin d'Aumeries
Assistance à la programmation : Marc-Olivier Méhu
Soutien technique & logistique : Manuel Goepfert

Contact : metmap@orbifly.com




SOURCES & CREDITS :

   NOAA       Earth
Advisory